sensor_id;sensor_type;location;lat;lon;timestamp;pressure;altitude;pressure_sealevel;temperature;humidity
3796;BME280;1913;50.660;7.834;2023-03-13T00:00:57;96350.91;;;9.74;nan
3796;BME280;1913;50.660;7.834;2023-03-13T00:03:23;96340.72;;;9.66;nan
3796;BME280;1913;50.660;7.834;2023-03-13T00:05:48;96330.13;;;9.54;nan
3796;BME280;1913;50.660;7.834;2023-03-13T00:08:14;96326.38;;;9.69;nan
3796;BME280;1913;50.660;7.834;2023-03-13T00:10:40;96319.38;;;9.81;nan
3796;BME280;1913;50.660;7.834;2023-03-13T00:13:06;96310.47;;;9.64;nan
3796;BME280;1913;50.660;7.834;2023-03-13T00:15:32;96303.13;;;9.72;nan
3796;BME280;1913;50.660;7.834;2023-03-13T00:17:58;96304.66;;;9.80;nan
3796;BME280;1913;50.660;7.834;2023-03-13T00:20:23;96288.53;;;9.95;nan
3796;BME280;1913;50.660;7.834;2023-03-13T00:22:49;96274.47;;;9.89;nan
3796;BME280;1913;50.660;7.834;2023-03-13T00:25:14;96287.38;;;9.91;nan
3796;BME280;1913;50.660;7.834;2023-03-13T00:27:40;96271.03;;;9.89;nan
3796;BME280;1913;50.660;7.834;2023-03-13T00:30:05;96274.13;;;9.86;nan
3796;BME280;1913;50.660;7.834;2023-03-13T00:32:32;96272.84;;;9.88;nan
3796;BME280;1913;50.660;7.834;2023-03-13T00:34:57;96269.97;;;9.96;nan
3796;BME280;1913;50.660;7.834;2023-03-13T00:37:22;96268.28;;;9.83;nan
3796;BME280;1913;50.660;7.834;2023-03-13T00:39:47;96253.31;;;9.84;nan
3796;BME280;1913;50.660;7.834;2023-03-13T00:42:13;96247.06;;;9.85;nan
3796;BME280;1913;50.660;7.834;2023-03-13T00:44:38;96249.47;;;9.87;nan
3796;BME280;1913;50.660;7.834;2023-03-13T00:47:04;96254.56;;;10.00;nan
3796;BME280;1913;50.660;7.834;2023-03-13T00:49:31;96229.88;;;9.89;nan
3796;BME280;1913;50.660;7.834;2023-03-13T00:51:56;96238.09;;;9.93;nan
3796;BME280;1913;50.660;7.834;2023-03-13T00:54:22;96232.50;;;9.89;nan
3796;BME280;1913;50.660;7.834;2023-03-13T00:56:47;96227.63;;;10.53;nan
3796;BME280;1913;50.660;7.834;2023-03-13T00:59:13;96214.25;;;10.54;nan
3796;BME280;1913;50.660;7.834;2023-03-13T01:01:39;96212.75;;;10.47;nan
3796;BME280;1913;50.660;7.834;2023-03-13T01:04:07;96219.03;;;10.46;nan
3796;BME280;1913;50.660;7.834;2023-03-13T01:06:34;96193.31;;;10.48;nan
3796;BME280;1913;50.660;7.834;2023-03-13T01:09:01;96185.09;;;10.44;nan
3796;BME280;1913;50.660;7.834;2023-03-13T01:11:29;96173.91;;;10.49;nan
3796;BME280;1913;50.660;7.834;2023-03-13T01:14:02;96164.47;;;10.18;nan
3796;BME280;1913;50.660;7.834;2023-03-13T01:16:30;96162.72;;;10.12;nan
3796;BME280;1913;50.660;7.834;2023-03-13T01:18:58;96158.19;;;10.19;nan
3796;BME280;1913;50.660;7.834;2023-03-13T01:21:25;96154.19;;;10.16;nan
3796;BME280;1913;50.660;7.834;2023-03-13T01:23:51;96144.91;;;10.02;nan
3796;BME280;1913;50.660;7.834;2023-03-13T01:26:17;96150.63;;;10.11;nan
3796;BME280;1913;50.660;7.834;2023-03-13T01:28:43;96131.09;;;10.06;nan
3796;BME280;1913;50.660;7.834;2023-03-13T01:31:19;96138.25;;;9.99;nan
3796;BME280;1913;50.660;7.834;2023-03-13T01:33:46;96144.50;;;9.87;nan
3796;BME280;1913;50.660;7.834;2023-03-13T01:36:12;96136.03;;;9.84;nan
3796;BME280;1913;50.660;7.834;2023-03-13T01:38:38;96131.47;;;9.80;nan
3796;BME280;1913;50.660;7.834;2023-03-13T01:41:04;96124.81;;;9.66;nan
3796;BME280;1913;50.660;7.834;2023-03-13T01:43:31;96130.06;;;9.66;nan
3796;BME280;1913;50.660;7.834;2023-03-13T01:48:39;96112.84;;;9.70;nan
3796;BME280;1913;50.660;7.834;2023-03-13T01:51:09;96114.31;;;9.66;nan
3796;BME280;1913;50.660;7.834;2023-03-13T01:53:39;96108.78;;;9.55;nan
3796;BME280;1913;50.660;7.834;2023-03-13T01:56:07;96092.22;;;9.43;nan
3796;BME280;1913;50.660;7.834;2023-03-13T01:58:36;96103.03;;;9.65;nan
3796;BME280;1913;50.660;7.834;2023-03-13T02:01:02;96095.41;;;9.45;nan
3796;BME280;1913;50.660;7.834;2023-03-13T02:03:28;96105.91;;;9.45;nan
3796;BME280;1913;50.660;7.834;2023-03-13T02:05:54;96107.97;;;9.43;nan
3796;BME280;1913;50.660;7.834;2023-03-13T02:08:28;96099.16;;;9.38;nan
3796;BME280;1913;50.660;7.834;2023-03-13T02:11:03;96083.56;;;9.43;nan
3796;BME280;1913;50.660;7.834;2023-03-13T02:13:31;96071.53;;;9.53;nan
3796;BME280;1913;50.660;7.834;2023-03-13T02:15:56;96080.56;;;9.39;nan
3796;BME280;1913;50.660;7.834;2023-03-13T02:18:22;96058.25;;;9.48;nan
3796;BME280;1913;50.660;7.834;2023-03-13T02:20:52;96048.16;;;9.64;nan
3796;BME280;1913;50.660;7.834;2023-03-13T02:23:26;96048.16;;;9.64;nan
3796;BME280;1913;50.660;7.834;2023-03-13T02:25:53;96048.75;;;9.66;nan
3796;BME280;1913;50.660;7.834;2023-03-13T02:28:24;96055.38;;;9.68;nan
3796;BME280;1913;50.660;7.834;2023-03-13T02:30:54;96035.28;;;9.62;nan
3796;BME280;1913;50.660;7.834;2023-03-13T02:33:20;96035.19;;;9.80;nan
3796;BME280;1913;50.660;7.834;2023-03-13T02:35:47;96029.50;;;9.72;nan
3796;BME280;1913;50.660;7.834;2023-03-13T02:38:17;96022.31;;;9.79;nan
3796;BME280;1913;50.660;7.834;2023-03-13T02:40:45;96000.75;;;9.89;nan
3796;BME280;1913;50.660;7.834;2023-03-13T02:43:19;95991.63;;;9.91;nan
3796;BME280;1913;50.660;7.834;2023-03-13T02:46:02;95992.19;;;9.81;nan
3796;BME280;1913;50.660;7.834;2023-03-13T02:48:37;95993.47;;;9.91;nan
3796;BME280;1913;50.660;7.834;2023-03-13T02:51:07;95988.00;;;10.04;nan
3796;BME280;1913;50.660;7.834;2023-03-13T02:53:35;95975.69;;;10.04;nan
3796;BME280;1913;50.660;7.834;2023-03-13T02:56:02;95980.44;;;9.96;nan
3796;BME280;1913;50.660;7.834;2023-03-13T02:58:27;95986.72;;;9.95;nan
3796;BME280;1913;50.660;7.834;2023-03-13T03:00:59;95992.31;;;9.98;nan
3796;BME280;1913;50.660;7.834;2023-03-13T03:03:31;95965.41;;;9.79;nan
3796;BME280;1913;50.660;7.834;2023-03-13T03:05:57;95985.59;;;9.91;nan
3796;BME280;1913;50.660;7.834;2023-03-13T03:08:22;95980.69;;;9.94;nan
3796;BME280;1913;50.660;7.834;2023-03-13T03:10:47;96003.03;;;9.85;nan
3796;BME280;1913;50.660;7.834;2023-03-13T03:13:12;95986.84;;;9.88;nan
3796;BME280;1913;50.660;7.834;2023-03-13T03:15:38;95977.38;;;9.99;nan
3796;BME280;1913;50.660;7.834;2023-03-13T03:18:06;95969.50;;;9.99;nan
3796;BME280;1913;50.660;7.834;2023-03-13T03:20:31;96002.56;;;9.88;nan
3796;BME280;1913;50.660;7.834;2023-03-13T03:22:57;95983.91;;;9.96;nan
3796;BME280;1913;50.660;7.834;2023-03-13T03:25:22;95975.69;;;9.93;nan
3796;BME280;1913;50.660;7.834;2023-03-13T03:27:47;95970.19;;;9.94;nan
3796;BME280;1913;50.660;7.834;2023-03-13T03:30:14;95966.22;;;10.03;nan
3796;BME280;1913;50.660;7.834;2023-03-13T03:32:39;95956.72;;;9.91;nan
3796;BME280;1913;50.660;7.834;2023-03-13T03:35:05;95958.22;;;9.87;nan
3796;BME280;1913;50.660;7.834;2023-03-13T03:37:31;95954.34;;;10.01;nan
3796;BME280;1913;50.660;7.834;2023-03-13T03:39:56;95960.50;;;9.95;nan
3796;BME280;1913;50.660;7.834;2023-03-13T03:42:22;95926.47;;;9.88;nan
3796;BME280;1913;50.660;7.834;2023-03-13T03:44:47;95938.94;;;9.93;nan
3796;BME280;1913;50.660;7.834;2023-03-13T03:47:12;95928.91;;;9.90;nan
3796;BME280;1913;50.660;7.834;2023-03-13T03:49:38;95950.78;;;9.95;nan
3796;BME280;1913;50.660;7.834;2023-03-13T03:52:03;95937.22;;;9.87;nan
3796;BME280;1913;50.660;7.834;2023-03-13T03:54:29;95936.50;;;10.03;nan
3796;BME280;1913;50.660;7.834;2023-03-13T03:56:54;95948.97;;;10.07;nan
3796;BME280;1913;50.660;7.834;2023-03-13T03:59:19;95943.03;;;10.00;nan
3796;BME280;1913;50.660;7.834;2023-03-13T04:01:45;95943.28;;;10.11;nan
3796;BME280;1913;50.660;7.834;2023-03-13T04:04:11;95946.56;;;10.18;nan
3796;BME280;1913;50.660;7.834;2023-03-13T04:06:36;95953.06;;;10.15;nan
3796;BME280;1913;50.660;7.834;2023-03-13T04:09:02;95947.13;;;10.20;nan
3796;BME280;1913;50.660;7.834;2023-03-13T04:11:27;95946.56;;;10.18;nan
3796;BME280;1913;50.660;7.834;2023-03-13T04:13:52;95931.50;;;10.25;nan
3796;BME280;1913;50.660;7.834;2023-03-13T04:16:18;95929.78;;;10.19;nan
3796;BME280;1913;50.660;7.834;2023-03-13T04:18:43;95919.38;;;10.24;nan
3796;BME280;1913;50.660;7.834;2023-03-13T04:21:09;95927.38;;;10.17;nan
3796;BME280;1913;50.660;7.834;2023-03-13T04:23:34;95923.75;;;10.30;nan
3796;BME280;1913;50.660;7.834;2023-03-13T04:25:59;95917.47;;;10.31;nan
3796;BME280;1913;50.660;7.834;2023-03-13T04:28:25;95928.19;;;10.29;nan
3796;BME280;1913;50.660;7.834;2023-03-13T04:30:50;95906.38;;;10.41;nan
3796;BME280;1913;50.660;7.834;2023-03-13T04:33:16;95906.25;;;10.47;nan
3796;BME280;1913;50.660;7.834;2023-03-13T04:35:43;95903.53;;;10.30;nan
3796;BME280;1913;50.660;7.834;2023-03-13T04:38:08;95894.75;;;10.37;nan
3796;BME280;1913;50.660;7.834;2023-03-13T04:40:33;95895.06;;;10.40;nan
3796;BME280;1913;50.660;7.834;2023-03-13T04:42:59;95908.03;;;10.59;nan
3796;BME280;1913;50.660;7.834;2023-03-13T04:45:24;95906.66;;;10.68;nan
3796;BME280;1913;50.660;7.834;2023-03-13T04:47:49;95897.81;;;10.74;nan
3796;BME280;1913;50.660;7.834;2023-03-13T04:50:15;95900.81;;;10.66;nan
3796;BME280;1913;50.660;7.834;2023-03-13T04:52:40;95890.03;;;10.79;nan
3796;BME280;1913;50.660;7.834;2023-03-13T04:55:05;95873.84;;;10.70;nan
3796;BME280;1913;50.660;7.834;2023-03-13T04:57:31;95873.34;;;10.85;nan
3796;BME280;1913;50.660;7.834;2023-03-13T04:59:57;95856.34;;;10.76;nan
3796;BME280;1913;50.660;7.834;2023-03-13T05:02:22;95849.34;;;10.82;nan
3796;BME280;1913;50.660;7.834;2023-03-13T05:04:47;95845.53;;;10.89;nan
3796;BME280;1913;50.660;7.834;2023-03-13T05:07:13;95846.88;;;10.92;nan
3796;BME280;1913;50.660;7.834;2023-03-13T05:09:38;95841.03;;;10.73;nan
3796;BME280;1913;50.660;7.834;2023-03-13T05:12:04;95868.69;;;10.75;nan
3796;BME280;1913;50.660;7.834;2023-03-13T05:14:29;95861.84;;;10.91;nan
3796;BME280;1913;50.660;7.834;2023-03-13T05:16:54;95856.94;;;11.12;nan
3796;BME280;1913;50.660;7.834;2023-03-13T05:19:20;95859.19;;;11.03;nan
3796;BME280;1913;50.660;7.834;2023-03-13T05:21:45;95862.34;;;11.05;nan
3796;BME280;1913;50.660;7.834;2023-03-13T05:24:11;95847.47;;;10.94;nan
3796;BME280;1913;50.660;7.834;2023-03-13T05:26:36;95838.47;;;11.07;nan
3796;BME280;1913;50.660;7.834;2023-03-13T05:29:01;95834.47;;;11.04;nan
3796;BME280;1913;50.660;7.834;2023-03-13T05:31:27;95823.19;;;11.03;nan
3796;BME280;1913;50.660;7.834;2023-03-13T05:33:52;95826.50;;;11.16;nan
3796;BME280;1913;50.660;7.834;2023-03-13T05:36:17;95814.47;;;11.20;nan
3796;BME280;1913;50.660;7.834;2023-03-13T05:38:47;95817.78;;;11.10;nan
3796;BME280;1913;50.660;7.834;2023-03-13T05:41:12;95813.63;;;11.14;nan
3796;BME280;1913;50.660;7.834;2023-03-13T05:43:38;95817.91;;;11.20;nan
3796;BME280;1913;50.660;7.834;2023-03-13T05:46:03;95807.84;;;11.34;nan
3796;BME280;1913;50.660;7.834;2023-03-13T05:48:28;95801.91;;;11.22;nan
3796;BME280;1913;50.660;7.834;2023-03-13T05:50:54;95798.53;;;11.10;nan
3796;BME280;1913;50.660;7.834;2023-03-13T05:53:19;95807.31;;;11.32;nan
3796;BME280;1913;50.660;7.834;2023-03-13T05:55:45;95813.28;;;11.44;nan
3796;BME280;1913;50.660;7.834;2023-03-13T05:58:10;95817.75;;;11.44;nan
3796;BME280;1913;50.660;7.834;2023-03-13T06:00:35;95812.31;;;11.50;nan
3796;BME280;1913;50.660;7.834;2023-03-13T06:03:01;95819.91;;;11.47;nan
3796;BME280;1913;50.660;7.834;2023-03-13T06:05:26;95802.38;;;11.36;nan
3796;BME280;1913;50.660;7.834;2023-03-13T06:07:52;95812.97;;;11.41;nan
3796;BME280;1913;50.660;7.834;2023-03-13T06:10:17;95829.47;;;11.36;nan
3796;BME280;1913;50.660;7.834;2023-03-13T06:12:43;95818.53;;;11.44;nan
3796;BME280;1913;50.660;7.834;2023-03-13T06:15:08;95809.69;;;11.34;nan
3796;BME280;1913;50.660;7.834;2023-03-13T06:17:35;95833.44;;;11.56;nan
3796;BME280;1913;50.660;7.834;2023-03-13T06:20:02;95837.75;;;11.45;nan
3796;BME280;1913;50.660;7.834;2023-03-13T06:22:28;95822.22;;;11.43;nan
3796;BME280;1913;50.660;7.834;2023-03-13T06:24:54;95832.63;;;11.55;nan
3796;BME280;1913;50.660;7.834;2023-03-13T06:27:21;95837.34;;;11.53;nan
3796;BME280;1913;50.660;7.834;2023-03-13T06:29:46;95825.84;;;11.59;nan
3796;BME280;1913;50.660;7.834;2023-03-13T06:32:11;95823.63;;;11.68;nan
3796;BME280;1913;50.660;7.834;2023-03-13T06:34:37;95839.00;;;11.59;nan
3796;BME280;1913;50.660;7.834;2023-03-13T06:37:02;95838.84;;;11.66;nan
3796;BME280;1913;50.660;7.834;2023-03-13T06:39:28;95824.81;;;11.60;nan
3796;BME280;1913;50.660;7.834;2023-03-13T06:41:53;95840.75;;;11.70;nan
3796;BME280;1913;50.660;7.834;2023-03-13T06:44:19;95853.81;;;11.82;nan
3796;BME280;1913;50.660;7.834;2023-03-13T06:46:44;95850.13;;;11.83;nan
3796;BME280;1913;50.660;7.834;2023-03-13T06:49:10;95843.59;;;12.03;nan
3796;BME280;1913;50.660;7.834;2023-03-13T06:51:35;95826.25;;;11.85;nan
3796;BME280;1913;50.660;7.834;2023-03-13T06:54:01;95842.72;;;11.80;nan
3796;BME280;1913;50.660;7.834;2023-03-13T06:56:27;95830.97;;;12.05;nan
3796;BME280;1913;50.660;7.834;2023-03-13T06:58:54;95817.66;;;11.94;nan
3796;BME280;1913;50.660;7.834;2023-03-13T07:01:19;95819.63;;;12.04;nan
3796;BME280;1913;50.660;7.834;2023-03-13T07:03:46;95809.38;;;12.03;nan
3796;BME280;1913;50.660;7.834;2023-03-13T07:06:12;95814.97;;;12.11;nan
3796;BME280;1913;50.660;7.834;2023-03-13T07:08:38;95804.31;;;12.23;nan
3796;BME280;1913;50.660;7.834;2023-03-13T07:11:06;95789.00;;;12.42;nan
3796;BME280;1913;50.660;7.834;2023-03-13T07:13:32;95802.97;;;12.42;nan
3796;BME280;1913;50.660;7.834;2023-03-13T07:16:02;95803.91;;;12.58;nan
3796;BME280;1913;50.660;7.834;2023-03-13T07:18:29;95815.66;;;12.45;nan
3796;BME280;1913;50.660;7.834;2023-03-13T07:20:56;95825.13;;;12.46;nan
3796;BME280;1913;50.660;7.834;2023-03-13T07:23:23;95858.66;;;12.29;nan
3796;BME280;1913;50.660;7.834;2023-03-13T07:26:10;95862.50;;;12.43;nan
3796;BME280;1913;50.660;7.834;2023-03-13T07:28:36;95837.59;;;12.29;nan
3796;BME280;1913;50.660;7.834;2023-03-13T07:31:13;95882.72;;;12.38;nan
3796;BME280;1913;50.660;7.834;2023-03-13T07:33:40;95849.56;;;12.64;nan
3796;BME280;1913;50.660;7.834;2023-03-13T07:36:06;95858.56;;;12.68;nan
3796;BME280;1913;50.660;7.834;2023-03-13T07:38:31;95865.19;;;12.49;nan
3796;BME280;1913;50.660;7.834;2023-03-13T07:40:57;95882.16;;;12.58;nan
3796;BME280;1913;50.660;7.834;2023-03-13T07:43:23;95874.75;;;12.55;nan
3796;BME280;1913;50.660;7.834;2023-03-13T07:45:57;95879.19;;;12.76;nan
3796;BME280;1913;50.660;7.834;2023-03-13T07:48:27;95881.19;;;12.64;nan
3796;BME280;1913;50.660;7.834;2023-03-13T07:50:54;95883.16;;;12.52;nan
3796;BME280;1913;50.660;7.834;2023-03-13T07:53:20;95890.56;;;12.55;nan
3796;BME280;1913;50.660;7.834;2023-03-13T07:55:58;95885.25;;;12.50;nan
3796;BME280;1913;50.660;7.834;2023-03-13T07:58:26;95874.88;;;12.43;nan
3796;BME280;1913;50.660;7.834;2023-03-13T08:00:52;95890.50;;;12.50;nan
3796;BME280;1913;50.660;7.834;2023-03-13T08:03:18;95894.47;;;12.52;nan
3796;BME280;1913;50.660;7.834;2023-03-13T08:05:44;95891.31;;;12.50;nan
3796;BME280;1913;50.660;7.834;2023-03-13T08:08:09;95893.28;;;12.60;nan
3796;BME280;1913;50.660;7.834;2023-03-13T08:10:35;95894.56;;;12.57;nan
3796;BME280;1913;50.660;7.834;2023-03-13T08:13:00;95898.16;;;12.51;nan
3796;BME280;1913;50.660;7.834;2023-03-13T08:15:26;95897.97;;;12.58;nan
3796;BME280;1913;50.660;7.834;2023-03-13T08:17:53;95892.81;;;12.68;nan
3796;BME280;1913;50.660;7.834;2023-03-13T08:20:19;95878.78;;;12.84;nan
3796;BME280;1913;50.660;7.834;2023-03-13T08:22:45;95863.69;;;12.80;nan
3796;BME280;1913;50.660;7.834;2023-03-13T08:25:11;95855.41;;;12.98;nan
3796;BME280;1913;50.660;7.834;2023-03-13T08:27:37;95852.84;;;13.03;nan
3796;BME280;1913;50.660;7.834;2023-03-13T08:30:02;95851.78;;;13.04;nan
3796;BME280;1913;50.660;7.834;2023-03-13T08:32:32;95845.19;;;13.34;nan
3796;BME280;1913;50.660;7.834;2023-03-13T08:34:58;95846.53;;;13.36;nan
3796;BME280;1913;50.660;7.834;2023-03-13T08:37:23;95833.34;;;13.36;nan
3796;BME280;1913;50.660;7.834;2023-03-13T08:39:48;95834.91;;;13.32;nan
3796;BME280;1913;50.660;7.834;2023-03-13T08:42:14;95833.25;;;13.58;nan
3796;BME280;1913;50.660;7.834;2023-03-13T08:44:39;95836.50;;;13.71;nan
3796;BME280;1913;50.660;7.834;2023-03-13T08:47:05;95824.59;;;13.68;nan
3796;BME280;1913;50.660;7.834;2023-03-13T08:49:31;95811.38;;;13.63;nan
3796;BME280;1913;50.660;7.834;2023-03-13T08:51:56;95820.03;;;13.58;nan
3796;BME280;1913;50.660;7.834;2023-03-13T08:54:21;95804.13;;;13.43;nan
3796;BME280;1913;50.660;7.834;2023-03-13T08:56:47;95826.00;;;13.38;nan
3796;BME280;1913;50.660;7.834;2023-03-13T08:59:12;95825.00;;;13.50;nan
3796;BME280;1913;50.660;7.834;2023-03-13T09:01:40;95829.53;;;13.54;nan
3796;BME280;1913;50.660;7.834;2023-03-13T09:04:06;95831.38;;;13.54;nan
3796;BME280;1913;50.660;7.834;2023-03-13T09:06:36;95814.25;;;13.61;nan
3796;BME280;1913;50.660;7.834;2023-03-13T09:09:02;95809.09;;;13.39;nan
3796;BME280;1913;50.660;7.834;2023-03-13T09:11:28;95809.81;;;13.67;nan
3796;BME280;1913;50.660;7.834;2023-03-13T09:13:54;95807.53;;;13.86;nan
3796;BME280;1913;50.660;7.834;2023-03-13T09:16:22;95789.72;;;14.19;nan
3796;BME280;1913;50.660;7.834;2023-03-13T09:18:49;95802.69;;;14.25;nan
3796;BME280;1913;50.660;7.834;2023-03-13T09:21:18;95801.50;;;14.69;nan
3796;BME280;1913;50.660;7.834;2023-03-13T09:23:44;95794.13;;;14.81;nan
3796;BME280;1913;50.660;7.834;2023-03-13T09:26:11;95793.31;;;14.65;nan
3796;BME280;1913;50.660;7.834;2023-03-13T09:28:36;95784.06;;;14.68;nan
3796;BME280;1913;50.660;7.834;2023-03-13T09:31:11;95800.50;;;14.95;nan
3796;BME280;1913;50.660;7.834;2023-03-13T09:33:37;95802.03;;;14.76;nan
3796;BME280;1913;50.660;7.834;2023-03-13T09:36:03;95797.44;;;14.41;nan
3796;BME280;1913;50.660;7.834;2023-03-13T09:38:29;95812.22;;;14.31;nan
3796;BME280;1913;50.660;7.834;2023-03-13T09:40:54;95801.63;;;14.21;nan
3796;BME280;1913;50.660;7.834;2023-03-13T09:46:10;95801.84;;;14.09;nan
3796;BME280;1913;50.660;7.834;2023-03-13T09:48:51;95810.50;;;14.00;nan
3796;BME280;1913;50.660;7.834;2023-03-13T09:53:50;95818.25;;;13.69;nan
3796;BME280;1913;50.660;7.834;2023-03-13T09:56:19;95823.59;;;13.74;nan
3796;BME280;1913;50.660;7.834;2023-03-13T09:58:53;95826.56;;;13.46;nan
3796;BME280;1913;50.660;7.834;2023-03-13T10:01:22;95825.38;;;13.26;nan
3796;BME280;1913;50.660;7.834;2023-03-13T10:04:00;95825.16;;;13.33;nan
3796;BME280;1913;50.660;7.834;2023-03-13T10:06:29;95833.06;;;13.33;nan
3796;BME280;1913;50.660;7.834;2023-03-13T10:08:57;95818.78;;;13.29;nan
3796;BME280;1913;50.660;7.834;2023-03-13T10:11:43;95821.50;;;13.07;nan
3796;BME280;1913;50.660;7.834;2023-03-13T10:14:23;95812.50;;;13.03;nan
3796;BME280;1913;50.660;7.834;2023-03-13T10:17:00;95818.31;;;13.05;nan
3796;BME280;1913;50.660;7.834;2023-03-13T10:19:38;95821.69;;;13.00;nan
3796;BME280;1913;50.660;7.834;2023-03-13T10:22:13;95810.31;;;12.94;nan
3796;BME280;1913;50.660;7.834;2023-03-13T10:24:56;95817.69;;;12.92;nan
3796;BME280;1913;50.660;7.834;2023-03-13T10:27:22;95792.91;;;12.93;nan
3796;BME280;1913;50.660;7.834;2023-03-13T10:29:48;95805.09;;;13.00;nan
3796;BME280;1913;50.660;7.834;2023-03-13T10:32:16;95790.97;;;12.84;nan
3796;BME280;1913;50.660;7.834;2023-03-13T10:37:23;95797.94;;;12.95;nan
3796;BME280;1913;50.660;7.834;2023-03-13T10:39:48;95798.47;;;12.97;nan
3796;BME280;1913;50.660;7.834;2023-03-13T10:42:27;95799.75;;;12.94;nan
3796;BME280;1913;50.660;7.834;2023-03-13T10:45:04;95795.41;;;12.78;nan
3796;BME280;1913;50.660;7.834;2023-03-13T10:47:33;95810.66;;;12.76;nan
3796;BME280;1913;50.660;7.834;2023-03-13T10:50:00;95802.53;;;12.78;nan
3796;BME280;1913;50.660;7.834;2023-03-13T10:52:43;95795.56;;;12.66;nan
3796;BME280;1913;50.660;7.834;2023-03-13T10:55:11;95788.00;;;12.75;nan
3796;BME280;1913;50.660;7.834;2023-03-13T10:57:38;95790.50;;;12.60;nan
3796;BME280;1913;50.660;7.834;2023-03-13T11:00:32;95778.25;;;12.76;nan
3796;BME280;1913;50.660;7.834;2023-03-13T11:02:59;95780.59;;;12.72;nan
3796;BME280;1913;50.660;7.834;2023-03-13T11:07:51;95760.44;;;12.88;nan
3796;BME280;1913;50.660;7.834;2023-03-13T11:10:28;95772.22;;;12.80;nan
3796;BME280;1913;50.660;7.834;2023-03-13T11:12:56;95765.72;;;12.88;nan
3796;BME280;1913;50.660;7.834;2023-03-13T11:15:34;95755.09;;;12.83;nan
3796;BME280;1913;50.660;7.834;2023-03-13T11:18:36;95764.25;;;12.70;nan
3796;BME280;1913;50.660;7.834;2023-03-13T11:21:04;95756.06;;;12.72;nan
3796;BME280;1913;50.660;7.834;2023-03-13T11:23:39;95764.38;;;12.85;nan
3796;BME280;1913;50.660;7.834;2023-03-13T11:26:34;95746.81;;;12.69;nan
3796;BME280;1913;50.660;7.834;2023-03-13T11:29:19;95747.03;;;12.62;nan
3796;BME280;1913;50.660;7.834;2023-03-13T11:31:59;95740.06;;;12.78;nan
3796;BME280;1913;50.660;7.834;2023-03-13T11:34:31;95738.78;;;12.86;nan
3796;BME280;1913;50.660;7.834;2023-03-13T11:37:13;95747.56;;;12.97;nan
3796;BME280;1913;50.660;7.834;2023-03-13T11:45:27;95725.84;;;13.16;nan
3796;BME280;1913;50.660;7.834;2023-03-13T11:48:08;95726.78;;;13.05;nan
3796;BME280;1913;50.660;7.834;2023-03-13T11:51:11;95708.06;;;13.44;nan
3796;BME280;1913;50.660;7.834;2023-03-13T11:54:01;95698.13;;;13.56;nan
3796;BME280;1913;50.660;7.834;2023-03-13T11:56:40;95699.84;;;13.35;nan
3796;BME280;1913;50.660;7.834;2023-03-13T11:59:20;95676.31;;;12.86;nan
3796;BME280;1913;50.660;7.834;2023-03-13T12:02:21;95696.41;;;12.98;nan
3796;BME280;1913;50.660;7.834;2023-03-13T12:04:56;95695.63;;;12.97;nan
3796;BME280;1913;50.660;7.834;2023-03-13T12:07:31;95672.88;;;12.86;nan
3796;BME280;1913;50.660;7.834;2023-03-13T12:10:18;95667.81;;;12.79;nan
3796;BME280;1913;50.660;7.834;2023-03-13T12:12:50;95671.63;;;12.93;nan
3796;BME280;1913;50.660;7.834;2023-03-13T12:15:27;95671.63;;;12.93;nan
3796;BME280;1913;50.660;7.834;2023-03-13T12:18:02;95667.41;;;12.98;nan
3796;BME280;1913;50.660;7.834;2023-03-13T12:20:43;95668.84;;;12.73;nan
3796;BME280;1913;50.660;7.834;2023-03-13T12:25:55;95654.44;;;12.91;nan
3796;BME280;1913;50.660;7.834;2023-03-13T12:31:08;95658.94;;;12.90;nan
3796;BME280;1913;50.660;7.834;2023-03-13T12:33:49;95624.22;;;13.04;nan
3796;BME280;1913;50.660;7.834;2023-03-13T12:36:39;95641.94;;;13.13;nan
3796;BME280;1913;50.660;7.834;2023-03-13T12:39:09;95639.41;;;13.34;nan
3796;BME280;1913;50.660;7.834;2023-03-13T12:41:59;95634.03;;;13.13;nan
3796;BME280;1913;50.660;7.834;2023-03-13T12:44:32;95631.69;;;13.22;nan
3796;BME280;1913;50.660;7.834;2023-03-13T12:47:14;95627.28;;;13.33;nan
3796;BME280;1913;50.660;7.834;2023-03-13T12:52:42;95620.63;;;13.20;nan
3796;BME280;1913;50.660;7.834;2023-03-13T12:55:31;95609.88;;;13.37;nan
3796;BME280;1913;50.660;7.834;2023-03-13T12:58:24;95596.66;;;13.27;nan
3796;BME280;1913;50.660;7.834;2023-03-13T13:00:52;95605.31;;;13.22;nan
3796;BME280;1913;50.660;7.834;2023-03-13T13:03:29;95605.41;;;13.32;nan
3796;BME280;1913;50.660;7.834;2023-03-13T13:06:04;95576.88;;;13.24;nan
3796;BME280;1913;50.660;7.834;2023-03-13T13:08:36;95585.16;;;13.58;nan
3796;BME280;1913;50.660;7.834;2023-03-13T13:16:44;95568.31;;;13.85;nan
3796;BME280;1913;50.660;7.834;2023-03-13T13:24:53;95533.22;;;13.95;nan
3796;BME280;1913;50.660;7.834;2023-03-13T13:32:37;95518.69;;;13.97;nan
3796;BME280;1913;50.660;7.834;2023-03-13T13:37:38;95510.50;;;14.14;nan
3796;BME280;1913;50.660;7.834;2023-03-13T13:40:18;95516.84;;;14.03;nan
3796;BME280;1913;50.660;7.834;2023-03-13T13:47:43;95505.22;;;14.04;nan
3796;BME280;1913;50.660;7.834;2023-03-13T13:50:26;95497.28;;;14.04;nan
3796;BME280;1913;50.660;7.834;2023-03-13T13:53:31;95494.13;;;14.02;nan
3796;BME280;1913;50.660;7.834;2023-03-13T13:55:57;95475.09;;;14.15;nan
3796;BME280;1913;50.660;7.834;2023-03-13T13:58:29;95465.63;;;13.88;nan
3796;BME280;1913;50.660;7.834;2023-03-13T14:01:04;95462.19;;;13.93;nan
3796;BME280;1913;50.660;7.834;2023-03-13T14:03:38;95467.16;;;14.05;nan
3796;BME280;1913;50.660;7.834;2023-03-13T14:06:28;95467.19;;;14.00;nan
3796;BME280;1913;50.660;7.834;2023-03-13T14:09:03;95445.50;;;14.18;nan
3796;BME280;1913;50.660;7.834;2023-03-13T14:11:37;95437.28;;;14.30;nan
3796;BME280;1913;50.660;7.834;2023-03-13T14:14:14;95442.88;;;14.23;nan
3796;BME280;1913;50.660;7.834;2023-03-13T14:16:43;95426.44;;;14.26;nan
3796;BME280;1913;50.660;7.834;2023-03-13T14:19:34;95436.81;;;13.97;nan
3796;BME280;1913;50.660;7.834;2023-03-13T14:22:05;95430.47;;;13.93;nan
3796;BME280;1913;50.660;7.834;2023-03-13T14:24:31;95424.41;;;13.98;nan
3796;BME280;1913;50.660;7.834;2023-03-13T14:26:56;95432.59;;;13.96;nan
3796;BME280;1913;50.660;7.834;2023-03-13T14:29:21;95406.72;;;14.03;nan
3796;BME280;1913;50.660;7.834;2023-03-13T14:31:58;95408.31;;;13.89;nan
3796;BME280;1913;50.660;7.834;2023-03-13T14:34:24;95389.28;;;13.97;nan
3796;BME280;1913;50.660;7.834;2023-03-13T14:36:53;95364.50;;;13.88;nan
3796;BME280;1913;50.660;7.834;2023-03-13T14:39:34;95378.44;;;14.09;nan
3796;BME280;1913;50.660;7.834;2023-03-13T14:42:05;95380.00;;;14.05;nan
3796;BME280;1913;50.660;7.834;2023-03-13T14:44:34;95366.50;;;14.27;nan
3796;BME280;1913;50.660;7.834;2023-03-13T14:47:05;95357.19;;;14.40;nan
3796;BME280;1913;50.660;7.834;2023-03-13T14:49:31;95372.50;;;14.43;nan